createdAt,value
2022-11-05T00:00:43.522Z,4.60
2022-11-05T00:04:10.077Z,7.15
2022-11-05T00:05:47.566Z,3.92
2022-11-05T00:07:08.210Z,4.68
2022-11-05T00:08:37.512Z,4.50
2022-11-05T00:09:52.165Z,5.10
2022-11-05T00:11:01.077Z,4.55
2022-11-05T00:12:31.827Z,5.47
2022-11-05T00:13:56.001Z,6.32
2022-11-05T00:15:17.637Z,5.45
2022-11-05T00:16:49.078Z,5.28
2022-11-05T00:17:58.985Z,5.32
2022-11-05T00:19:12.046Z,5.18
2022-11-05T00:20:22.021Z,5.13
2022-11-05T00:21:43.652Z,7.70
2022-11-05T00:23:13.539Z,4.57
2022-11-05T00:24:41.280Z,4.30
2022-11-05T00:26:20.943Z,5.93
2022-11-05T00:32:09.582Z,4.45
2022-11-05T00:35:01.637Z,5.75
2022-11-05T00:36:44.233Z,5.55
2022-11-05T00:38:01.059Z,4.88
2022-11-05T00:39:26.390Z,3.88
2022-11-05T00:40:45.490Z,4.60
2022-11-05T00:43:57.140Z,5.15
2022-11-05T00:45:30.563Z,4.13
2022-11-05T00:46:36.548Z,6.35
2022-11-05T00:49:37.395Z,4.30
2022-11-05T00:50:44.998Z,4.28
2022-11-05T00:52:23.219Z,10.30
2022-11-05T00:53:41.827Z,4.60
2022-11-05T00:54:49.313Z,4.43
2022-11-05T00:56:10.094Z,5.53
2022-11-05T00:57:29.226Z,4.32
2022-11-05T00:58:38.811Z,4.85
2022-11-05T01:00:06.868Z,5.80
2022-11-05T01:01:30.495Z,4.88
2022-11-05T01:04:02.429Z,6.57
2022-11-05T01:05:31.135Z,6.75
2022-11-05T01:08:12.868Z,4.57
2022-11-05T01:09:33.969Z,4.07
2022-11-05T01:10:46.960Z,4.53
2022-11-05T01:12:02.444Z,6.00
2022-11-05T01:13:22.210Z,4.07
2022-11-05T01:14:40.320Z,6.18
2022-11-05T01:17:45.855Z,4.85
2022-11-05T01:19:06.903Z,2.75
2022-11-05T01:20:30.943Z,3.53
2022-11-05T01:21:37.226Z,4.28
2022-11-05T01:22:45.185Z,4.43
2022-11-05T01:23:53.716Z,2.88
2022-11-05T01:25:10.012Z,2.40
2022-11-05T01:26:13.193Z,3.22
2022-11-05T01:27:24.859Z,3.40
2022-11-05T01:28:32.516Z,2.83
2022-11-05T01:29:40.102Z,4.80
2022-11-05T01:30:50.490Z,4.40
2022-11-05T01:32:07.136Z,3.17
2022-11-05T01:33:28.812Z,2.78
2022-11-05T01:34:36.920Z,2.00
2022-11-05T01:35:57.962Z,2.42
2022-11-05T01:37:12.047Z,4.30
2022-11-05T01:38:23.861Z,1.90
2022-11-05T01:39:26.574Z,3.78
2022-11-05T01:40:30.793Z,3.63
2022-11-05T01:41:33.365Z,3.88
2022-11-05T01:42:41.522Z,4.28
2022-11-05T01:43:57.016Z,1.50
2022-11-05T01:45:18.553Z,2.60
2022-11-05T01:46:30.815Z,2.35
2022-11-05T01:47:52.293Z,5.50
2022-11-05T01:49:02.936Z,5.70
2022-11-05T01:50:26.200Z,2.40
2022-11-05T01:51:29.530Z,4.20
2022-11-05T01:52:39.468Z,2.22
2022-11-05T01:53:53.279Z,1.85
2022-11-05T01:55:01.294Z,5.43
2022-11-05T01:56:09.328Z,3.03
2022-11-05T01:57:16.154Z,2.00
2022-11-05T01:58:23.039Z,5.28
2022-11-05T01:59:38.878Z,2.67
2022-11-05T02:00:42.795Z,2.13
2022-11-05T02:01:46.908Z,2.13
2022-11-05T02:02:52.141Z,2.63
2022-11-05T02:03:58.817Z,3.35
2022-11-05T02:05:06.566Z,3.20
2022-11-05T02:06:13.029Z,3.08
2022-11-05T02:07:17.446Z,1.90
2022-11-05T02:08:54.354Z,1.30
2022-11-05T02:10:37.980Z,2.10
2022-11-05T02:12:02.003Z,2.10
2022-11-05T02:13:15.035Z,1.67
2022-11-05T02:14:51.514Z,3.88
2022-11-05T02:18:19.962Z,2.88
2022-11-05T02:21:52.467Z,2.22
2022-11-05T02:23:03.953Z,4.13
2022-11-05T02:24:43.563Z,3.25
2022-11-05T02:25:57.998Z,7.05
2022-11-05T02:27:39.168Z,2.47
2022-11-05T02:29:21.000Z,2.38
2022-11-05T02:31:09.803Z,1.77
2022-11-05T02:33:05.830Z,3.75
2022-11-05T02:34:49.582Z,2.35
2022-11-05T02:36:12.679Z,4.20
2022-11-05T02:37:34.299Z,3.70
2022-11-05T02:39:09.169Z,3.22
2022-11-05T02:40:23.389Z,4.38
2022-11-05T02:41:48.429Z,4.93
2022-11-05T02:45:45.546Z,3.58
2022-11-05T02:47:19.592Z,1.33
2022-11-05T02:48:55.371Z,2.10
2022-11-05T02:50:09.733Z,3.33
2022-11-05T02:51:31.576Z,5.80
2022-11-05T02:52:38.636Z,1.75
2022-11-05T02:54:25.746Z,2.47
2022-11-05T02:56:06.306Z,3.10
2022-11-05T02:59:46.281Z,3.95
2022-11-05T03:00:59.478Z,2.42
2022-11-05T03:02:14.814Z,2.35
2022-11-05T03:03:43.650Z,1.75
2022-11-05T03:04:49.649Z,1.88
2022-11-05T03:06:17.264Z,4.32
2022-11-05T03:09:51.287Z,1.67
2022-11-05T03:11:08.198Z,1.35
2022-11-05T03:12:43.815Z,1.00
2022-11-05T03:14:03.015Z,5.68
2022-11-05T03:17:08.671Z,1.90
2022-11-05T03:18:43.382Z,2.75
2022-11-05T03:20:03.660Z,1.75
2022-11-05T03:21:31.160Z,3.17
2022-11-05T03:22:53.394Z,2.25
2022-11-05T03:24:38.959Z,1.48
2022-11-05T03:25:57.837Z,0.90
2022-11-05T03:27:17.313Z,1.20
2022-11-05T03:28:39.026Z,3.38
2022-11-05T03:29:51.794Z,2.85
2022-11-05T03:31:12.809Z,0.85
2022-11-05T03:32:17.709Z,0.70
2022-11-05T03:33:27.039Z,0.75
2022-11-05T03:34:59.009Z,0.82
2022-11-05T03:36:17.412Z,1.65
2022-11-05T03:37:36.510Z,0.47
2022-11-05T03:39:27.852Z,1.20
2022-11-05T03:40:40.417Z,2.15
2022-11-05T03:42:06.830Z,1.33
2022-11-05T03:45:18.666Z,1.20
2022-11-05T03:51:48.812Z,0.50
2022-11-05T03:53:37.339Z,1.20
2022-11-05T03:55:03.111Z,1.20
2022-11-05T03:56:52.223Z,0.50
2022-11-05T04:00:10.112Z,0.40
2022-11-05T04:02:41.649Z,0.50
2022-11-05T04:03:49.859Z,0.35
2022-11-05T04:05:00.442Z,0.40
2022-11-05T04:06:29.309Z,0.30
2022-11-05T04:07:58.368Z,2.55
2022-11-05T04:09:20.218Z,0.47
2022-11-05T04:10:40.865Z,0.38
2022-11-05T04:12:01.795Z,0.20
2022-11-05T04:13:23.454Z,0.40
2022-11-05T04:14:27.070Z,0.68
2022-11-05T04:15:52.188Z,0.50
2022-11-05T04:17:06.536Z,0.77
2022-11-05T04:18:19.561Z,0.50
2022-11-05T04:19:44.022Z,0.43
2022-11-05T04:21:06.694Z,0.70
2022-11-05T04:22:31.201Z,0.63
2022-11-05T04:23:52.578Z,2.25
2022-11-05T04:24:59.342Z,0.70
2022-11-05T04:26:09.131Z,0.50
2022-11-05T04:27:24.280Z,0.75
2022-11-05T04:28:47.216Z,0.70
2022-11-05T04:30:13.042Z,2.30
2022-11-05T04:31:32.102Z,0.85
2022-11-05T04:33:09.596Z,0.57
2022-11-05T04:34:16.463Z,0.50
2022-11-05T04:35:39.537Z,0.70
2022-11-05T04:38:35.413Z,0.88
2022-11-05T04:39:42.360Z,1.70
2022-11-05T04:40:51.152Z,1.15
2022-11-05T04:42:11.810Z,2.60
2022-11-05T04:43:20.060Z,3.10
2022-11-05T04:44:24.954Z,2.60
2022-11-05T04:45:40.202Z,0.82
2022-11-05T04:46:52.995Z,0.70
2022-11-05T04:48:08.807Z,1.15
2022-11-05T04:49:14.959Z,0.68
2022-11-05T04:50:18.508Z,1.90
2022-11-05T04:51:21.775Z,0.93
2022-11-05T04:52:29.739Z,1.33
2022-11-05T04:53:34.314Z,1.25
2022-11-05T04:54:37.525Z,1.20
2022-11-05T04:55:49.740Z,2.20
2022-11-05T04:56:57.559Z,1.02
2022-11-05T04:58:11.872Z,1.10
2022-11-05T04:59:31.124Z,1.30
2022-11-05T05:00:42.694Z,1.55
2022-11-05T05:01:51.838Z,2.20
2022-11-05T05:02:55.351Z,2.72
2022-11-05T05:04:13.276Z,2.05
2022-11-05T05:05:26.536Z,1.67
2022-11-05T05:06:50.551Z,2.50
2022-11-05T05:07:53.496Z,1.40
2022-11-05T05:08:58.388Z,2.25
2022-11-05T05:10:11.329Z,2.90
2022-11-05T05:11:42.114Z,1.63
2022-11-05T05:15:44.400Z,4.10
2022-11-05T05:18:22.025Z,2.08
2022-11-05T05:19:31.862Z,4.40
2022-11-05T05:21:15.490Z,3.85
2022-11-05T05:22:33.205Z,2.45
2022-11-05T05:23:43.311Z,2.75
2022-11-05T05:24:52.429Z,3.10
2022-11-05T05:26:03.943Z,5.13
2022-11-05T05:27:12.509Z,2.85
2022-11-05T05:28:38.835Z,2.58
2022-11-05T05:29:51.633Z,2.80
2022-11-05T05:32:31.932Z,2.60
2022-11-05T05:33:45.276Z,2.65
2022-11-05T05:37:07.003Z,3.63
2022-11-05T05:38:22.868Z,5.50
2022-11-05T05:39:32.339Z,4.85
2022-11-05T05:43:25.994Z,3.65
2022-11-05T05:44:32.552Z,5.55
2022-11-05T05:45:51.260Z,3.28
2022-11-05T05:47:06.670Z,3.10
2022-11-05T05:48:26.336Z,5.22
2022-11-05T05:49:30.678Z,4.03
2022-11-05T05:50:48.329Z,4.20
2022-11-05T05:51:59.856Z,3.95
2022-11-05T05:53:23.456Z,5.65
2022-11-05T05:54:34.273Z,5.53
2022-11-05T05:55:49.373Z,6.40
2022-11-05T05:56:56.042Z,4.95
2022-11-05T05:58:02.105Z,4.43
2022-11-05T05:59:09.046Z,6.30
2022-11-05T06:00:13.239Z,4.63
2022-11-05T06:01:20.263Z,4.13
2022-11-05T06:02:33.726Z,4.20
2022-11-05T06:03:48.030Z,5.15
2022-11-05T06:04:55.553Z,4.07
2022-11-05T06:06:15.631Z,3.65
2022-11-05T06:07:27.222Z,3.00
2022-11-05T06:08:36.975Z,4.47
2022-11-05T06:09:42.786Z,3.10
2022-11-05T06:10:52.274Z,2.72
2022-11-05T06:12:04.513Z,2.97
2022-11-05T06:13:13.397Z,2.63
2022-11-05T06:14:19.409Z,3.63
2022-11-05T06:15:24.070Z,2.83
2022-11-05T06:16:27.968Z,5.22
2022-11-05T06:17:32.761Z,3.13
2022-11-05T06:18:40.281Z,4.70
2022-11-05T06:19:45.325Z,2.83
2022-11-05T06:20:50.017Z,3.97
2022-11-05T06:21:52.299Z,2.60
2022-11-05T06:22:56.382Z,4.05
2022-11-05T06:24:12.598Z,4.97
2022-11-05T06:25:21.773Z,3.67
2022-11-05T06:26:30.117Z,4.93
2022-11-05T06:27:40.184Z,2.40
2022-11-05T06:28:45.561Z,4.57
2022-11-05T06:30:08.112Z,3.85
2022-11-05T06:31:24.737Z,3.88
2022-11-05T06:33:54.245Z,2.70
2022-11-05T06:35:06.264Z,4.63
2022-11-05T06:36:30.505Z,2.47
2022-11-05T06:37:59.076Z,2.30
2022-11-05T06:39:18.549Z,1.95
2022-11-05T06:42:17.427Z,2.63
2022-11-05T06:44:47.465Z,2.42
2022-11-05T06:46:03.668Z,5.57
2022-11-05T06:47:13.319Z,3.90
2022-11-05T06:48:26.765Z,4.40
2022-11-05T06:49:32.159Z,4.50
2022-11-05T06:50:41.134Z,2.85
2022-11-05T06:53:15.374Z,4.75
2022-11-05T06:54:24.275Z,4.78
2022-11-05T06:55:37.640Z,4.63
2022-11-05T06:56:43.240Z,3.33
2022-11-05T06:57:50.431Z,5.50
2022-11-05T06:59:21.633Z,3.03
2022-11-05T07:00:42.215Z,3.28
2022-11-05T07:01:54.389Z,2.55
2022-11-05T07:03:03.830Z,4.43
2022-11-05T07:04:11.016Z,2.28
2022-11-05T07:05:19.030Z,2.25
2022-11-05T07:06:31.889Z,2.20
2022-11-05T07:07:52.079Z,2.80
2022-11-05T07:08:59.852Z,1.55
2022-11-05T07:10:13.879Z,2.10
2022-11-05T07:11:22.223Z,3.17
2022-11-05T07:13:50.277Z,1.92
2022-11-05T07:14:57.688Z,4.78
2022-11-05T07:16:39.350Z,2.83
2022-11-05T07:19:04.254Z,3.70
2022-11-05T07:20:20.650Z,2.75
2022-11-05T07:21:27.309Z,2.55
2022-11-05T07:22:36.596Z,3.80
2022-11-05T07:24:02.589Z,3.00
2022-11-05T07:30:17.687Z,4.05
2022-11-05T07:31:42.843Z,3.00
2022-11-05T07:32:50.154Z,4.40
2022-11-05T07:34:04.371Z,3.38
2022-11-05T07:35:15.013Z,2.60
2022-11-05T07:36:18.316Z,2.92
2022-11-05T07:37:22.034Z,5.80
2022-11-05T07:38:25.067Z,2.00
2022-11-05T07:39:30.081Z,2.72
2022-11-05T07:42:05.474Z,2.10
2022-11-05T07:43:13.159Z,2.65
2022-11-05T07:44:15.484Z,2.33
2022-11-05T07:45:36.696Z,2.63
2022-11-05T07:46:41.515Z,2.88
2022-11-05T07:47:48.819Z,4.15
2022-11-05T07:48:56.329Z,3.97
2022-11-05T07:50:11.064Z,2.55
2022-11-05T07:51:19.435Z,4.97
2022-11-05T07:52:28.853Z,2.25
2022-11-05T07:53:43.958Z,2.50
2022-11-05T07:55:16.782Z,3.08
2022-11-05T07:56:29.713Z,3.00
2022-11-05T07:57:56.232Z,3.67
2022-11-05T07:59:07.379Z,5.32
2022-11-05T08:00:46.476Z,4.57
2022-11-05T08:01:55.859Z,4.28
2022-11-05T08:03:17.559Z,6.00
2022-11-05T08:06:10.740Z,5.05
2022-11-05T08:07:33.577Z,6.03
2022-11-05T08:08:53.634Z,6.35
2022-11-05T08:10:02.591Z,10.80
2022-11-05T08:11:08.794Z,6.63
2022-11-05T08:12:20.175Z,7.78
2022-11-05T08:13:29.288Z,7.50
2022-11-05T08:14:44.486Z,9.73
2022-11-05T08:15:50.852Z,7.68
2022-11-05T08:16:56.897Z,7.93
2022-11-05T08:18:24.943Z,9.68
2022-11-05T08:19:35.710Z,8.32
2022-11-05T08:20:41.971Z,9.40
2022-11-05T08:21:59.110Z,8.55
2022-11-05T08:23:01.663Z,8.38
2022-11-05T08:24:03.979Z,11.55
2022-11-05T08:28:20.347Z,10.82
2022-11-05T08:29:39.009Z,10.35
2022-11-05T08:30:59.934Z,10.30
2022-11-05T08:32:25.479Z,9.60
2022-11-05T08:34:02.162Z,13.38
2022-11-05T08:35:06.695Z,10.38
2022-11-05T08:36:16.088Z,11.20
2022-11-05T08:37:22.762Z,11.77
2022-11-05T08:38:27.735Z,11.40
2022-11-05T08:39:41.982Z,11.82
2022-11-05T08:41:06.656Z,12.95
2022-11-05T08:42:22.629Z,11.75
2022-11-05T08:43:31.039Z,14.32
2022-11-05T08:44:45.376Z,11.27
2022-11-05T08:45:57.260Z,11.00
2022-11-05T08:48:31.756Z,12.48
2022-11-05T08:49:40.810Z,11.45
2022-11-05T08:50:52.433Z,11.52
2022-11-05T08:52:04.190Z,10.27
2022-11-05T08:53:13.365Z,10.73
2022-11-05T08:54:30.199Z,11.75
2022-11-05T08:55:54.064Z,11.93
2022-11-05T08:56:56.606Z,13.00
2022-11-05T08:58:08.633Z,12.30
2022-11-05T08:59:19.037Z,12.77
2022-11-05T09:01:59.884Z,10.43
2022-11-05T09:03:07.755Z,13.30
2022-11-05T09:04:38.791Z,13.55
2022-11-05T09:11:06.675Z,12.52
2022-11-05T09:17:14.319Z,12.75
2022-11-05T09:19:01.321Z,13.50
2022-11-05T09:20:22.442Z,10.80
2022-11-05T09:21:49.136Z,13.38
2022-11-05T09:23:07.735Z,13.07
2022-11-05T09:24:26.123Z,12.60
2022-11-05T09:25:33.406Z,15.80
2022-11-05T09:26:47.036Z,13.10
2022-11-05T09:28:12.278Z,11.48
2022-11-05T09:29:54.729Z,14.32
2022-11-05T09:31:36.997Z,13.65
2022-11-05T09:32:42.694Z,15.35
2022-11-05T09:33:48.387Z,16.58
2022-11-05T09:34:57.765Z,15.10
2022-11-05T09:36:00.635Z,13.80
2022-11-05T09:37:04.415Z,15.13
2022-11-05T09:38:08.227Z,15.25
2022-11-05T09:39:11.127Z,16.90
2022-11-05T09:40:17.755Z,17.35
2022-11-05T09:41:24.647Z,12.98
2022-11-05T09:42:41.095Z,12.30
2022-11-05T09:43:48.775Z,13.10
2022-11-05T09:45:05.683Z,12.68
2022-11-05T09:46:24.392Z,15.00
2022-11-05T09:47:46.694Z,16.35
2022-11-05T09:48:54.184Z,15.63
2022-11-05T09:50:01.130Z,15.05
2022-11-05T09:51:05.960Z,14.80
2022-11-05T09:52:14.986Z,17.95
2022-11-05T09:53:19.648Z,15.90
2022-11-05T09:54:32.206Z,15.35
2022-11-05T09:55:52.481Z,14.30
2022-11-05T09:57:00.283Z,14.30
2022-11-05T09:58:52.457Z,14.75
2022-11-05T10:00:03.585Z,18.42
2022-11-05T10:03:05.536Z,17.67
2022-11-05T10:04:21.200Z,16.58
2022-11-05T10:05:27.841Z,13.60
2022-11-05T10:06:30.764Z,17.83
2022-11-05T10:07:42.918Z,16.67
2022-11-05T10:08:54.042Z,15.93
2022-11-05T10:10:16.264Z,15.40
2022-11-05T10:11:50.356Z,14.90
2022-11-05T10:15:35.338Z,15.07
2022-11-05T10:18:44.276Z,16.65
2022-11-05T10:20:38.324Z,14.23
2022-11-05T10:22:06.291Z,14.45
2022-11-05T10:25:28.472Z,12.07
2022-11-05T10:26:52.935Z,12.18
2022-11-05T10:27:58.886Z,12.80
2022-11-05T10:29:04.229Z,14.10
2022-11-05T10:30:18.301Z,16.55
2022-11-05T10:31:35.189Z,13.48
2022-11-05T10:34:31.447Z,11.77
2022-11-05T10:35:50.221Z,15.23
2022-11-05T10:37:14.253Z,12.18
2022-11-05T10:38:51.608Z,11.52
2022-11-05T10:39:57.772Z,13.13
2022-11-05T10:41:42.029Z,13.98
2022-11-05T10:43:16.931Z,12.32
2022-11-05T10:46:03.925Z,12.73
2022-11-05T10:48:03.636Z,13.32
2022-11-05T10:57:56.531Z,14.55
2022-11-05T11:01:13.331Z,13.95
2022-11-05T11:02:45.002Z,12.85
2022-11-05T11:04:13.666Z,15.00
2022-11-05T11:05:32.370Z,11.70
2022-11-05T11:06:44.997Z,12.95
2022-11-05T11:08:00.183Z,14.43
2022-11-05T11:11:49.382Z,12.48
2022-11-05T11:13:24.977Z,15.57
2022-11-05T11:15:34.604Z,13.30
2022-11-05T11:17:05.853Z,12.25
2022-11-05T11:20:35.511Z,11.52
2022-11-05T11:23:21.142Z,11.63
2022-11-05T11:24:29.669Z,15.23
2022-11-05T11:26:04.257Z,12.32
2022-11-05T11:27:30.893Z,14.95
2022-11-05T11:28:53.787Z,14.77
2022-11-05T11:30:10.341Z,12.68
2022-11-05T11:31:32.892Z,10.23
2022-11-05T11:33:09.630Z,12.48
2022-11-05T11:34:33.408Z,12.40
2022-11-05T11:35:50.568Z,12.38
2022-11-05T11:37:15.336Z,13.68
2022-11-05T11:38:32.806Z,14.63
2022-11-05T11:39:43.214Z,16.38
2022-11-05T11:40:52.713Z,12.85
2022-11-05T11:42:30.407Z,13.48
2022-11-05T11:44:18.771Z,14.30
2022-11-05T11:45:46.295Z,11.10
2022-11-05T11:47:18.950Z,12.25
2022-11-05T11:48:31.171Z,10.82
2022-11-05T11:49:42.012Z,12.60
2022-11-05T11:50:46.821Z,9.32
2022-11-05T11:51:53.820Z,11.63
2022-11-05T11:52:56.059Z,11.35
2022-11-05T11:54:02.906Z,13.82
2022-11-05T11:55:11.803Z,10.27
2022-11-05T11:56:18.473Z,19.08
2022-11-05T11:57:35.825Z,10.55
2022-11-05T12:02:44.131Z,12.75
2022-11-05T12:04:38.111Z,11.32
2022-11-05T12:05:56.708Z,15.60
2022-11-05T12:07:10.901Z,16.08
2022-11-05T12:08:18.720Z,13.73
2022-11-05T12:09:29.557Z,9.63
2022-11-05T12:11:13.523Z,9.80
2022-11-05T12:12:21.507Z,10.77
2022-11-05T12:13:56.752Z,9.65
2022-11-05T12:15:16.440Z,13.02
2022-11-05T12:16:56.320Z,10.93
2022-11-05T12:18:45.647Z,13.68
2022-11-05T12:20:24.429Z,13.30
2022-11-05T12:23:47.494Z,10.00
2022-11-05T12:25:14.401Z,13.30
2022-11-05T12:26:41.508Z,11.73
2022-11-05T12:28:05.089Z,10.57
2022-11-05T12:29:23.818Z,10.15
2022-11-05T12:30:28.000Z,11.40
2022-11-05T12:31:37.544Z,8.93
2022-11-05T12:32:55.450Z,10.65
2022-11-05T12:34:18.812Z,10.10
2022-11-05T12:35:44.181Z,11.77
2022-11-05T12:37:23.585Z,8.40
2022-11-05T12:38:53.334Z,9.48
2022-11-05T12:40:20.633Z,10.35
2022-11-05T12:41:32.230Z,8.48
2022-11-05T12:42:44.697Z,13.20
2022-11-05T12:44:13.516Z,12.57
2022-11-05T12:45:43.149Z,10.65
2022-11-05T12:47:08.099Z,13.90
2022-11-05T12:48:28.253Z,10.05
2022-11-05T12:49:44.372Z,10.38
2022-11-05T12:50:50.015Z,8.57
2022-11-05T12:52:14.182Z,9.95
2022-11-05T12:53:33.371Z,9.13
2022-11-05T12:54:37.756Z,9.15
2022-11-05T12:55:48.070Z,10.68
2022-11-05T12:56:55.064Z,9.98
2022-11-05T12:58:04.022Z,10.02
2022-11-05T12:59:31.059Z,10.90
2022-11-05T13:00:34.876Z,8.65
2022-11-05T13:01:43.982Z,10.85
2022-11-05T13:03:07.721Z,9.50
2022-11-05T13:04:34.618Z,11.02
2022-11-05T13:05:47.832Z,11.18
2022-11-05T13:06:55.060Z,8.70
2022-11-05T13:08:09.880Z,10.00
2022-11-05T13:09:32.416Z,8.48
2022-11-05T13:10:46.720Z,12.93
2022-11-05T13:12:14.335Z,11.13
2022-11-05T13:13:29.387Z,12.57
2022-11-05T13:14:37.813Z,10.68
2022-11-05T13:15:54.167Z,11.30
2022-11-05T13:17:07.075Z,10.60
2022-11-05T13:18:21.407Z,13.18
2022-11-05T13:19:47.873Z,9.30
2022-11-05T13:20:52.679Z,9.00
2022-11-05T13:22:09.935Z,9.85
2022-11-05T13:23:26.656Z,9.95
2022-11-05T13:24:53.913Z,14.98
2022-11-05T13:26:06.741Z,8.35
2022-11-05T13:27:11.492Z,9.48
2022-11-05T13:28:34.722Z,10.35
2022-11-05T13:29:55.617Z,10.82
2022-11-05T13:31:01.583Z,10.75
2022-11-05T13:32:29.157Z,10.52
2022-11-05T13:33:34.057Z,10.30
2022-11-05T13:34:55.103Z,10.65
2022-11-05T13:36:18.391Z,12.52
2022-11-05T13:37:47.270Z,9.40
2022-11-05T13:39:07.395Z,10.95
2022-11-05T13:40:14.324Z,13.50
2022-11-05T13:41:49.834Z,7.85
2022-11-05T13:43:21.380Z,8.10
2022-11-05T13:44:29.627Z,9.45
2022-11-05T13:45:40.927Z,8.00
2022-11-05T13:47:15.373Z,12.77
2022-11-05T13:48:41.821Z,8.93
2022-11-05T13:50:18.517Z,9.23
2022-11-05T13:51:42.377Z,11.52
2022-11-05T13:52:44.370Z,8.40
2022-11-05T13:54:41.468Z,10.65
2022-11-05T13:56:31.386Z,9.70
2022-11-05T13:57:45.136Z,9.45
2022-11-05T13:59:06.920Z,10.32
2022-11-05T14:00:20.364Z,12.02
2022-11-05T14:01:55.072Z,8.63
2022-11-05T14:03:05.094Z,10.10
2022-11-05T14:04:15.047Z,10.52
2022-11-05T14:05:26.944Z,9.52
2022-11-05T14:06:35.184Z,10.38
2022-11-05T14:07:50.244Z,12.52
2022-11-05T14:09:03.992Z,8.20
2022-11-05T14:10:09.898Z,13.98
2022-11-05T14:11:38.341Z,10.32
2022-11-05T14:12:41.059Z,12.75
2022-11-05T14:13:45.807Z,14.20
2022-11-05T14:14:58.638Z,12.70
2022-11-05T14:16:06.957Z,11.70
2022-11-05T14:17:10.443Z,8.98
2022-11-05T14:18:25.051Z,10.57
2022-11-05T14:19:36.395Z,8.15
2022-11-05T14:20:44.199Z,11.10
2022-11-05T14:21:48.719Z,11.05
2022-11-05T14:22:51.275Z,12.75
2022-11-05T14:23:55.810Z,10.63
2022-11-05T14:24:58.941Z,12.73
2022-11-05T14:26:18.386Z,11.75
2022-11-05T14:27:21.681Z,11.80
2022-11-05T14:28:36.902Z,10.20
2022-11-05T14:29:42.709Z,12.02
2022-11-05T14:30:47.079Z,7.93
2022-11-05T14:32:09.524Z,10.88
2022-11-05T14:33:26.584Z,10.32
2022-11-05T14:35:01.035Z,10.00
2022-11-05T14:36:22.569Z,11.13
2022-11-05T14:37:31.370Z,10.88
2022-11-05T14:38:34.435Z,9.60
2022-11-05T14:39:37.181Z,9.68
2022-11-05T14:40:42.778Z,11.60
2022-11-05T14:41:57.098Z,10.07
2022-11-05T14:43:08.152Z,11.05
2022-11-05T14:44:12.456Z,12.15
2022-11-05T14:45:17.241Z,9.07
2022-11-05T14:46:20.262Z,11.50
2022-11-05T14:47:24.630Z,11.02
2022-11-05T14:48:46.793Z,11.15
2022-11-05T14:49:55.665Z,12.45
2022-11-05T14:50:58.018Z,11.13
2022-11-05T14:52:08.326Z,12.18
2022-11-05T14:53:31.305Z,10.30
2022-11-05T14:54:49.076Z,9.90
2022-11-05T14:56:07.324Z,9.52
2022-11-05T14:57:15.909Z,11.85
2022-11-05T14:58:47.047Z,10.93
2022-11-05T14:59:57.179Z,11.32
2022-11-05T15:01:00.980Z,11.38
2022-11-05T15:02:15.543Z,10.65
2022-11-05T15:03:42.617Z,8.75
2022-11-05T15:04:50.985Z,9.93
2022-11-05T15:05:53.999Z,10.95
2022-11-05T15:07:32.731Z,12.65
2022-11-05T15:08:38.904Z,11.68
2022-11-05T15:09:48.105Z,12.35
2022-11-05T15:10:51.372Z,11.95
2022-11-05T15:12:04.333Z,13.40
2022-11-05T15:13:27.572Z,13.98
2022-11-05T15:14:37.028Z,12.57
2022-11-05T15:15:47.144Z,11.07
2022-11-05T15:16:58.863Z,10.98
2022-11-05T15:18:11.550Z,12.50
2022-11-05T15:19:31.456Z,14.60
2022-11-05T15:20:44.362Z,12.00
2022-11-05T15:21:46.730Z,12.35
2022-11-05T15:22:58.404Z,14.10
2022-11-05T15:24:02.674Z,12.50
2022-11-05T15:25:05.948Z,13.48
2022-11-05T15:26:29.131Z,11.35
2022-11-05T15:27:54.686Z,12.65
2022-11-05T15:28:56.884Z,13.57
2022-11-05T15:30:24.464Z,12.20
2022-11-05T15:31:36.428Z,14.05
2022-11-05T15:32:40.406Z,13.60
2022-11-05T15:33:48.443Z,10.70
2022-11-05T15:34:53.592Z,12.70
2022-11-05T15:36:09.046Z,13.68
2022-11-05T15:37:10.905Z,12.93
2022-11-05T15:38:34.178Z,13.85
2022-11-05T15:39:42.605Z,14.85
2022-11-05T15:40:44.723Z,13.98
2022-11-05T15:41:47.842Z,14.27
2022-11-05T15:43:28.618Z,13.85
2022-11-05T15:44:42.456Z,17.15
2022-11-05T15:45:58.004Z,14.45
2022-11-05T15:47:30.208Z,13.55
2022-11-05T15:48:34.239Z,12.48
2022-11-05T15:49:36.543Z,14.95
2022-11-05T15:50:38.795Z,12.38
2022-11-05T15:51:41.002Z,12.43
2022-11-05T15:52:54.013Z,11.05
2022-11-05T15:54:29.120Z,12.15
2022-11-05T15:55:27.186Z,10.45
2022-11-05T15:56:48.052Z,10.77
2022-11-05T15:57:59.933Z,13.48
2022-11-05T15:59:06.298Z,12.82
2022-11-05T16:00:17.493Z,11.30
2022-11-05T16:01:28.262Z,12.65
2022-11-05T16:02:33.685Z,15.18
2022-11-05T16:03:40.469Z,12.48
2022-11-05T16:04:48.531Z,18.92
2022-11-05T16:05:54.301Z,13.15
2022-11-05T16:07:07.188Z,12.50
2022-11-05T16:08:20.525Z,12.63
2022-11-05T16:09:32.496Z,11.82
2022-11-05T16:10:40.115Z,12.15
2022-11-05T16:12:27.057Z,12.77
2022-11-05T16:13:41.745Z,10.70
2022-11-05T16:14:44.476Z,14.98
2022-11-05T16:15:57.821Z,13.38
2022-11-05T16:17:22.024Z,17.20
2022-11-05T16:18:30.912Z,13.43
2022-11-05T16:19:40.996Z,14.20
2022-11-05T16:21:02.023Z,12.70
2022-11-05T16:22:05.571Z,14.95
2022-11-05T16:23:23.009Z,13.55
2022-11-05T16:24:29.424Z,12.25
2022-11-05T16:25:44.280Z,13.35
2022-11-05T16:27:02.290Z,10.98
2022-11-05T16:28:20.828Z,10.82
2022-11-05T16:29:30.036Z,13.55
2022-11-05T16:30:32.022Z,13.18
2022-11-05T16:31:34.099Z,12.10
2022-11-05T16:32:36.153Z,12.35
2022-11-05T16:33:45.449Z,9.82
2022-11-05T16:34:53.257Z,12.45
2022-11-05T16:35:57.479Z,11.02
2022-11-05T16:37:03.400Z,11.70
2022-11-05T16:38:06.055Z,11.93
2022-11-05T16:39:09.653Z,10.77
2022-11-05T16:40:23.940Z,11.23
2022-11-05T16:41:27.435Z,9.93
2022-11-05T16:42:37.691Z,10.85
2022-11-05T16:43:39.753Z,12.07
2022-11-05T16:44:42.169Z,9.00
2022-11-05T16:45:44.180Z,10.95
2022-11-05T16:46:48.727Z,10.00
2022-11-05T16:47:52.906Z,12.85
2022-11-05T16:48:55.586Z,10.60
2022-11-05T16:49:58.577Z,9.82
2022-11-05T16:51:00.907Z,11.77
2022-11-05T16:52:09.495Z,9.65
2022-11-05T16:53:12.749Z,11.32
2022-11-05T16:54:15.264Z,9.15
2022-11-05T16:55:19.116Z,8.68
2022-11-05T16:56:24.769Z,8.90
2022-11-05T16:57:28.319Z,11.80
2022-11-05T16:58:30.871Z,10.63
2022-11-05T16:59:33.398Z,9.77
2022-11-05T17:00:35.678Z,11.00
2022-11-05T17:01:41.295Z,9.25
2022-11-05T17:02:44.518Z,9.10
2022-11-05T17:03:47.659Z,9.43
2022-11-05T17:04:49.729Z,9.27
2022-11-05T17:05:51.874Z,11.68
2022-11-05T17:06:53.838Z,12.10
2022-11-05T17:07:57.025Z,8.38
2022-11-05T17:08:59.064Z,9.70
2022-11-05T17:10:01.250Z,10.88
2022-11-05T17:11:05.668Z,10.23
2022-11-05T17:12:08.062Z,7.93
2022-11-05T17:13:17.396Z,9.13
2022-11-05T17:14:19.522Z,9.50
2022-11-05T17:15:35.589Z,10.77
2022-11-05T17:16:38.801Z,9.48
2022-11-05T17:17:40.928Z,13.80
2022-11-05T17:18:43.830Z,11.68
2022-11-05T17:19:46.305Z,10.07
2022-11-05T17:20:55.101Z,12.32
2022-11-05T17:21:57.259Z,10.30
2022-11-05T17:23:00.011Z,10.75
2022-11-05T17:24:03.444Z,11.98
2022-11-05T17:25:05.728Z,9.57
2022-11-05T17:26:12.253Z,10.85
2022-11-05T17:27:14.841Z,11.15
2022-11-05T17:28:18.020Z,11.63
2022-11-05T17:29:20.070Z,16.05
2022-11-05T17:30:22.631Z,12.63
2022-11-05T17:31:24.622Z,13.43
2022-11-05T17:32:28.055Z,12.43
2022-11-05T17:33:30.193Z,10.23
2022-11-05T17:34:32.182Z,10.32
2022-11-05T17:35:38.780Z,13.85
2022-11-05T17:36:42.512Z,11.88
2022-11-05T17:37:45.447Z,12.20
2022-11-05T17:38:47.697Z,11.75
2022-11-05T17:39:49.758Z,10.55
2022-11-05T17:40:52.156Z,11.95
2022-11-05T17:41:55.334Z,11.82
2022-11-05T17:42:58.695Z,14.73
2022-11-05T17:44:00.831Z,11.65
2022-11-05T17:45:02.981Z,10.95
2022-11-05T17:46:09.270Z,10.75
2022-11-05T17:47:11.969Z,9.80
2022-11-05T17:48:15.974Z,10.43
2022-11-05T17:49:18.476Z,11.10
2022-11-05T17:50:20.889Z,10.32
2022-11-05T17:51:22.908Z,11.13
2022-11-05T17:52:24.896Z,11.63
2022-11-05T17:53:26.877Z,12.15
2022-11-05T17:54:30.651Z,11.30
2022-11-05T17:55:35.087Z,11.95
2022-11-05T17:56:41.683Z,10.93
2022-11-05T17:57:49.043Z,11.55
2022-11-05T17:58:52.162Z,12.23
2022-11-05T17:59:55.670Z,14.05
2022-11-05T18:00:59.176Z,17.05
2022-11-05T18:02:04.818Z,11.85
2022-11-05T18:03:07.063Z,11.43
2022-11-05T18:04:11.397Z,13.23
2022-11-05T18:05:13.653Z,14.05
2022-11-05T18:06:16.024Z,11.45
2022-11-05T18:07:18.108Z,13.48
2022-11-05T18:08:21.550Z,16.77
2022-11-05T18:09:24.355Z,11.18
2022-11-05T18:10:27.373Z,11.57
2022-11-05T18:11:29.468Z,10.77
2022-11-05T18:12:31.871Z,13.30
2022-11-05T18:13:35.279Z,14.38
2022-11-05T18:14:39.104Z,10.70
2022-11-05T18:15:42.621Z,12.77
2022-11-05T18:16:44.767Z,11.90
2022-11-05T18:17:47.440Z,11.68